Time;durP1;ratioP1;P1;durP2;ratioP2;P2;SDS_P1;SDS_P2;PMS_P1;PMS_P2;Temp;Humidity;BMP_temperature;BMP_pressure;BME280_temperature;BME280_humidity;BME280_pressure;Samples;Min_cycle;Max_cycle;Signal;HPM_P1;HPM_P2
2022/03/08 00:01:22;;;;;;;;;;;;;;;17.93;53.15;100991.81;5015559;28;1981;-32
2022/03/08 00:03:51;;;;;;;;;;;;;;;17.94;53.61;100988.16;5014504;28;1972;-32
2022/03/08 00:06:17;;;;;;;;;;;;;;;18.06;52.92;100987.16;5008639;28;1448;-32
2022/03/08 00:08:44;;;;;;;;;;;;;;;17.99;53.13;100980.63;5010284;28;1776;-32
2022/03/08 00:11:13;;;;;;;;;;;;;;;18.03;53.13;100988.25;5004825;28;1915;-32
2022/03/08 00:13:42;;;;;;;;;;;;;;;18.02;52.92;100985.69;5015183;28;1088;-32
2022/03/08 00:16:11;;;;;;;;;;;;;;;17.99;53.11;100980.63;5010544;28;1974;-32
2022/03/08 00:18:44;;;;;;;;;;;;;;;17.89;53.41;100976.00;5008273;28;1784;-31
2022/03/08 00:21:14;;;;;;;;;;;;;;;17.80;53.73;100976.69;5001707;28;1906;-32
2022/03/08 00:23:41;;;;;;;;;;;;;;;17.80;53.53;100973.16;5002084;28;1766;-32
2022/03/08 00:26:10;;;;;;;;;;;;;;;17.73;53.93;100980.84;5004982;28;1768;-32
2022/03/08 00:28:36;;;;;;;;;;;;;;;17.65;53.97;100975.25;5013320;28;1396;-31
2022/03/08 00:31:03;;;;;;;;;;;;;;;17.63;53.98;100975.38;5004849;28;1124;-32
2022/03/08 00:33:30;;;;;;;;;;;;;;;17.57;53.93;100970.50;5000826;28;1747;-32
2022/03/08 00:36:02;;;;;;;;;;;;;;;17.58;54.52;100968.69;5005749;28;1855;-32
2022/03/08 00:38:31;;;;;;;;;;;;;;;17.58;54.43;100971.34;5005359;28;1945;-32
2022/03/08 00:41:00;;;;;;;;;;;;;;;17.50;54.49;100970.13;4996694;28;1979;-31
2022/03/08 00:43:27;;;;;;;;;;;;;;;17.54;54.22;100975.25;4995333;28;1001;-32
2022/03/08 00:45:57;;;;;;;;;;;;;;;17.48;53.94;100966.72;5002825;28;1590;-32
2022/03/08 00:48:27;;;;;;;;;;;;;;;17.52;54.35;100966.50;5006671;28;1829;-32
2022/03/08 00:50:57;;;;;;;;;;;;;;;17.48;54.53;100950.66;5001805;28;1244;-32
2022/03/08 00:53:32;;;;;;;;;;;;;;;17.46;54.45;100966.00;5008204;28;1595;-32
2022/03/08 00:55:58;;;;;;;;;;;;;;;17.53;54.64;100962.81;5000569;28;1838;-32
2022/03/08 00:58:26;;;;;;;;;;;;;;;17.50;54.49;100954.06;5009987;28;1595;-32
2022/03/08 01:00:53;;;;;;;;;;;;;;;17.52;54.32;100953.13;5003610;28;1973;-32
2022/03/08 01:03:20;;;;;;;;;;;;;;;17.47;54.34;100964.19;5002553;28;1888;-33
2022/03/08 01:05:46;;;;;;;;;;;;;;;17.45;54.08;100950.09;5009352;28;1233;-32
2022/03/08 01:08:16;;;;;;;;;;;;;;;17.46;54.41;100949.09;5004703;28;1598;-32
2022/03/08 01:10:48;;;;;;;;;;;;;;;17.48;54.43;100957.84;5012587;28;1750;-32
2022/03/08 01:13:17;;;;;;;;;;;;;;;17.50;54.41;100959.44;5003569;28;1931;-32
2022/03/08 01:15:46;;;;;;;;;;;;;;;17.46;54.62;100963.31;5003349;28;1824;-32
2022/03/08 01:18:13;;;;;;;;;;;;;;;17.40;54.91;100953.09;5009435;28;1547;-32
2022/03/08 01:20:42;;;;;;;;;;;;;;;17.37;54.62;100957.84;5003711;28;1907;-32
2022/03/08 01:23:10;;;;;;;;;;;;;;;17.36;54.29;100957.00;4996988;28;1954;-32
2022/03/08 01:25:40;;;;;;;;;;;;;;;17.44;54.36;100959.91;4996236;28;1510;-31
2022/03/08 01:28:10;;;;;;;;;;;;;;;17.36;54.09;100950.81;5009689;28;1733;-32
2022/03/08 01:30:38;;;;;;;;;;;;;;;17.36;54.60;100957.00;4998711;28;1510;-32
2022/03/08 01:33:05;;;;;;;;;;;;;;;17.38;54.63;100949.69;5001303;28;2277;-32
2022/03/08 01:35:32;;;;;;;;;;;;;;;17.33;54.22;100951.03;5007175;28;1858;-32
2022/03/08 01:37:59;;;;;;;;;;;;;;;17.33;54.58;100959.03;5009265;28;1834;-34
2022/03/08 01:40:25;;;;;;;;;;;;;;;17.32;54.75;100947.50;4998231;28;1898;-34
2022/03/08 01:42:53;;;;;;;;;;;;;;;17.39;54.87;100950.53;5007226;28;1047;-32
2022/03/08 01:45:26;;;;;;;;;;;;;;;17.39;54.66;100953.22;4995032;28;1929;-32
2022/03/08 01:47:53;;;;;;;;;;;;;;;17.44;54.29;100946.53;4997153;28;1627;-32
2022/03/08 01:50:27;;;;;;;;;;;;;;;17.39;54.21;100956.75;5009120;28;1389;-32
2022/03/08 01:53:03;;;;;;;;;;;;;;;17.38;54.56;100960.41;5004241;28;1763;-32
2022/03/08 01:55:33;;;;;;;;;;;;;;;17.40;54.61;100953.09;5005648;28;1988;-32
2022/03/08 01:58:00;;;;;;;;;;;;;;;17.39;54.01;100956.75;5000668;28;1169;-32
2022/03/08 02:00:34;;;;;;;;;;;;;;;17.39;54.51;100945.19;5008923;28;1052;-32
2022/03/08 02:03:02;;;;;;;;;;;;;;;17.41;54.85;100956.66;5000440;28;1765;-32
2022/03/08 02:05:29;;;;;;;;;;;;;;;17.44;54.77;100954.56;5005056;28;1608;-32
2022/03/08 02:07:59;;;;;;;;;;;;;;;17.42;53.93;100943.13;5004108;28;1870;-32
2022/03/08 02:10:25;;;;;;;;;;;;;;;17.42;54.29;100956.50;4998205;28;1500;-34
2022/03/08 02:12:53;;;;;;;;;;;;;;;17.46;53.79;100947.28;5006633;28;1727;-32
2022/03/08 02:15:21;;;;;;;;;;;;;;;17.46;53.85;100957.97;5010743;28;1812;-32
2022/03/08 02:17:51;;;;;;;;;;;;;;;17.50;54.54;100964.78;5006453;28;1639;-32
2022/03/08 02:20:19;;;;;;;;;;;;;;;17.42;54.41;100942.31;5007286;28;1611;-32
2022/03/08 02:22:49;;;;;;;;;;;;;;;17.47;53.71;100950.81;5008675;28;1906;-32
2022/03/08 02:25:29;;;;;;;;;;;;;;;17.50;54.34;100961.25;5008178;28;1803;-32
2022/03/08 02:27:56;;;;;;;;;;;;;;;17.52;54.34;100959.31;4998770;28;1622;-32
2022/03/08 02:30:24;;;;;;;;;;;;;;;17.48;54.42;100952.50;5004037;28;1085;-32
2022/03/08 02:32:54;;;;;;;;;;;;;;;17.53;54.41;100958.34;5013831;28;1813;-32
2022/03/08 02:38:24;;;;;;;;;;;;;;;17.42;54.75;100945.81;5005540;28;1505;-32
2022/03/08 02:40:54;;;;;;;;;;;;;;;17.40;54.64;100955.78;5008882;28;1918;-32
2022/03/08 02:43:23;;;;;;;;;;;;;;;17.39;54.27;100946.06;4997501;28;989;-32
2022/03/08 02:45:52;;;;;;;;;;;;;;;17.44;54.26;100959.91;5004081;28;1852;-32
2022/03/08 02:48:19;;;;;;;;;;;;;;;17.46;54.39;100960.63;5007602;28;1563;-32
2022/03/08 02:50:46;;;;;;;;;;;;;;;17.36;53.71;100957.00;5003662;28;1920;-32
2022/03/08 02:53:15;;;;;;;;;;;;;;;17.43;54.06;100958.22;5002184;28;1981;-32
2022/03/08 02:55:48;;;;;;;;;;;;;;;17.37;54.68;100953.38;5010256;28;1670;-32
2022/03/08 02:58:14;;;;;;;;;;;;;;;17.38;53.88;100948.84;5007530;28;1248;-32
2022/03/08 03:03:52;;;;;;;;;;;;;;;17.32;54.06;100950.19;5015633;28;1346;-31
2022/03/08 03:06:22;;;;;;;;;;;;;;;17.36;54.74;100935.59;4999059;28;1382;-33
2022/03/08 03:08:50;;;;;;;;;;;;;;;17.32;54.10;100949.34;5016150;28;1285;-32
2022/03/08 03:11:21;;;;;;;;;;;;;;;17.27;54.63;100957.72;5015990;28;1524;-32
2022/03/08 03:13:50;;;;;;;;;;;;;;;17.28;55.02;100964.75;5016237;28;1244;-32
2022/03/08 03:16:20;;;;;;;;;;;;;;;17.37;54.04;100957.84;5016105;28;1551;-32
2022/03/08 03:18:50;;;;;;;;;;;;;;;17.39;54.33;100970.13;5010377;28;1104;-32
2022/03/08 03:21:22;;;;;;;;;;;;;;;17.35;54.39;100976.69;5015657;28;1972;-32
2022/03/08 03:23:51;;;;;;;;;;;;;;;17.39;54.69;100982.63;5003546;28;1388;-32
2022/03/08 03:26:23;;;;;;;;;;;;;;;17.38;54.24;100965.75;5012427;28;1615;-32
2022/03/08 03:28:57;;;;;;;;;;;;;;;17.37;54.54;100966.72;5011185;28;1544;-32
2022/03/08 03:31:26;;;;;;;;;;;;;;;17.40;54.15;100958.44;5015723;28;1705;-32
2022/03/08 03:33:56;;;;;;;;;;;;;;;17.35;54.78;100968.66;5001763;28;1836;-32
2022/03/08 03:36:25;;;;;;;;;;;;;;;17.44;54.52;100967.94;5003392;28;1708;-32
2022/03/08 03:38:52;;;;;;;;;;;;;;;17.37;54.54;100971.19;5011095;28;1610;-32
2022/03/08 03:41:25;;;;;;;;;;;;;;;17.36;54.62;100948.97;5011321;28;1906;-31
2022/03/08 03:43:55;;;;;;;;;;;;;;;17.43;54.63;100962.72;5015864;28;1068;-32
2022/03/08 03:46:22;;;;;;;;;;;;;;;17.37;54.50;100966.72;5009888;28;1898;-32
2022/03/08 03:48:52;;;;;;;;;;;;;;;17.37;54.74;100974.75;5010660;28;1226;-32
2022/03/08 03:51:20;;;;;;;;;;;;;;;17.39;54.11;100959.44;5010561;28;1501;-32
2022/03/08 03:53:47;;;;;;;;;;;;;;;17.35;54.56;100970.47;5010866;28;1643;-32
2022/03/08 03:56:16;;;;;;;;;;;;;;;17.37;54.22;100977.41;5015191;28;1762;-32
2022/03/08 03:58:47;;;;;;;;;;;;;;;17.39;54.30;100975.47;5015259;28;1605;-32
2022/03/08 04:01:17;;;;;;;;;;;;;;;17.40;54.69;100979.00;5015488;28;1991;-32
2022/03/08 04:03:47;;;;;;;;;;;;;;;17.38;54.54;100976.44;5015230;28;1589;-32
2022/03/08 04:06:17;;;;;;;;;;;;;;;17.42;54.27;100979.72;5015044;28;1651;-32
2022/03/08 04:08:46;;;;;;;;;;;;;;;17.47;54.43;100997.13;5005148;28;1759;-32
2022/03/08 04:11:16;;;;;;;;;;;;;;;17.42;54.43;100988.59;5003219;28;1622;-32
2022/03/08 04:13:58;;;;;;;;;;;;;;;17.42;54.35;100982.41;5002338;28;1020;-32
2022/03/08 04:16:28;;;;;;;;;;;;;;;17.42;54.58;100977.06;5011566;28;1606;-32
2022/03/08 04:18:57;;;;;;;;;;;;;;;17.38;54.32;100971.09;5014741;28;1270;-32
2022/03/08 04:21:26;;;;;;;;;;;;;;;17.35;54.48;100976.69;5014969;28;1976;-32
2022/03/08 04:23:55;;;;;;;;;;;;;;;17.33;54.49;100972.41;5006558;28;1997;-32
2022/03/08 04:26:24;;;;;;;;;;;;;;;17.34;54.64;100972.28;5009543;28;1611;-32
2022/03/08 04:28:53;;;;;;;;;;;;;;;17.33;54.52;100978.63;5014409;28;2090;-32
2022/03/08 04:31:22;;;;;;;;;;;;;;;17.27;54.07;100979.09;5014825;28;1112;-32
2022/03/08 04:33:53;;;;;;;;;;;;;;;17.33;53.99;100967.94;5006832;28;1906;-32
2022/03/08 04:36:27;;;;;;;;;;;;;;;17.41;54.20;100975.38;5014617;28;1802;-32
2022/03/08 04:38:55;;;;;;;;;;;;;;;17.29;54.76;100974.50;5008068;28;1769;-32
2022/03/08 04:41:30;;;;;;;;;;;;;;;17.28;54.82;100980.78;5014047;28;1902;-32
2022/03/08 04:43:59;;;;;;;;;;;;;;;17.30;54.91;100986.88;5014640;28;1571;-32
2022/03/08 04:46:26;;;;;;;;;;;;;;;17.34;54.47;100985.66;5014974;28;1631;-32
2022/03/08 04:48:58;;;;;;;;;;;;;;;17.34;54.37;100982.16;5014215;28;1624;-32
2022/03/08 04:51:25;;;;;;;;;;;;;;;17.34;54.81;100990.16;5014010;28;1585;-32
2022/03/08 04:53:51;;;;;;;;;;;;;;;17.34;54.76;100996.34;5007343;28;1851;-32
2022/03/08 04:56:19;;;;;;;;;;;;;;;17.31;54.35;100977.91;5009739;28;1666;-32
2022/03/08 04:58:46;;;;;;;;;;;;;;;17.36;54.79;100988.22;5014187;28;1762;-32
2022/03/08 05:01:15;;;;;;;;;;;;;;;17.30;54.36;100990.38;5014178;28;1397;-32
2022/03/08 05:03:42;;;;;;;;;;;;;;;17.35;54.85;100991.84;5014233;28;1906;-32
2022/03/08 05:06:15;;;;;;;;;;;;;;;17.34;54.61;100982.16;5004529;28;1776;-34
2022/03/08 05:08:41;;;;;;;;;;;;;;;17.79;54.60;100991.03;4999347;28;1778;-34
2022/03/08 05:11:09;;;;;;;;;;;;;;;18.23;53.96;100986.63;5012078;28;1776;-34
2022/03/08 05:13:38;;;;;;;;;;;;;;;18.92;52.95;100985.47;5014425;28;1930;-34
2022/03/08 05:16:06;;;;;;;;;;;;;;;18.71;52.71;101000.63;5010405;28;2027;-34
2022/03/08 05:18:33;;;;;;;;;;;;;;;18.69;52.71;101001.59;5013871;28;1848;-34
2022/03/08 05:21:01;;;;;;;;;;;;;;;18.68;52.71;101004.38;5013941;28;1801;-34
2022/03/08 05:26:14;;;;;;;;;;;;;;;18.68;52.04;100994.53;5006006;28;2454;-32
2022/03/08 05:28:42;;;;;;;;;;;;;;;18.72;52.36;100994.28;5001328;28;1733;-32
2022/03/08 05:31:10;;;;;;;;;;;;;;;18.83;51.87;100995.13;5012192;28;1814;-32
2022/03/08 05:33:37;;;;;;;;;;;;;;;18.83;52.31;101003.16;5012891;28;1788;-32
2022/03/08 05:36:04;;;;;;;;;;;;;;;18.79;53.31;101003.50;5007650;28;1938;-32
2022/03/08 05:38:35;;;;;;;;;;;;;;;18.84;53.42;101010.22;5013785;28;2017;-32
2022/03/08 05:41:01;;;;;;;;;;;;;;;18.82;53.91;101012.19;5006591;28;1777;-32
2022/03/08 05:43:28;;;;;;;;;;;;;;;18.81;54.10;101014.97;5002389;28;1906;-32
2022/03/08 05:46:10;;;;;;;;;;;;;;;18.79;53.87;101027.63;5007116;28;1891;-32
2022/03/08 05:48:37;;;;;;;;;;;;;;;18.82;54.04;101016.66;5013066;28;1966;-32
2022/03/08 05:51:06;;;;;;;;;;;;;;;18.86;53.62;101023.47;5013027;28;1900;-32
2022/03/08 05:53:34;;;;;;;;;;;;;;;18.88;53.67;101024.22;5012640;28;1448;-32
2022/03/08 05:56:01;;;;;;;;;;;;;;;18.85;54.13;101027.13;5013420;28;1801;-32
2022/03/08 05:58:28;;;;;;;;;;;;;;;19.15;53.82;101018.34;5013037;28;1552;-32
2022/03/08 06:00:57;;;;;;;;;;;;;;;19.03;53.50;101022.06;5013623;28;1150;-32
2022/03/08 06:03:29;;;;;;;;;;;;;;;19.01;53.88;101037.44;5012879;28;1906;-32
2022/03/08 06:05:59;;;;;;;;;;;;;;;19.01;53.81;101035.59;5012988;28;1375;-32
2022/03/08 06:08:28;;;;;;;;;;;;;;;18.96;53.86;101040.50;5007373;28;2071;-32
2022/03/08 06:10:57;;;;;;;;;;;;;;;19.19;53.14;101037.69;5006346;28;1666;-32
2022/03/08 06:13:27;;;;;;;;;;;;;;;18.95;53.66;101044.16;4998896;28;2032;-32
2022/03/08 06:15:53;;;;;;;;;;;;;;;18.80;54.99;101042.75;5005936;28;1770;-32
2022/03/08 06:18:23;;;;;;;;;;;;;;;18.88;53.58;101048.34;5012403;28;1934;-32
2022/03/08 06:20:51;;;;;;;;;;;;;;;18.77;53.98;101046.50;5012916;28;1940;-32
2022/03/08 06:23:22;;;;;;;;;;;;;;;19.00;53.46;101041.06;5008061;28;1979;-32
2022/03/08 06:25:51;;;;;;;;;;;;;;;18.85;54.16;101053.94;5008737;28;1564;-32
2022/03/08 06:28:21;;;;;;;;;;;;;;;18.64;55.56;101052.03;4996779;28;1569;-32
2022/03/08 06:30:48;;;;;;;;;;;;;;;18.55;55.91;101063.50;5009252;28;1674;-32
2022/03/08 06:33:15;;;;;;;;;;;;;;;18.53;55.50;101053.88;5012551;28;1922;-32
2022/03/08 06:35:44;;;;;;;;;;;;;;;18.73;54.93;101058.44;5011835;28;1990;-32
2022/03/08 06:38:10;;;;;;;;;;;;;;;18.80;56.04;101061.50;5008285;28;1719;-33
2022/03/08 06:40:37;;;;;;;;;;;;;;;18.76;56.49;101060.00;5011203;28;1712;-32
2022/03/08 06:43:07;;;;;;;;;;;;;;;18.83;55.81;101063.94;5010407;28;1914;-33
2022/03/08 06:45:49;;;;;;;;;;;;;;;18.66;55.60;101058.13;5012616;28;1534;-32
2022/03/08 06:48:15;;;;;;;;;;;;;;;18.66;56.21;101063.47;5012986;28;1539;-33
2022/03/08 06:50:44;;;;;;;;;;;;;;;18.47;56.92;101055.22;5008194;28;1874;-34
2022/03/08 06:53:10;;;;;;;;;;;;;;;18.54;56.50;101067.13;5010937;28;1839;-32
2022/03/08 06:55:39;;;;;;;;;;;;;;;18.41;56.22;101066.44;5012277;28;1749;-32
2022/03/08 06:58:08;;;;;;;;;;;;;;;18.52;56.21;101068.25;5015181;28;1846;-32
2022/03/08 07:00:37;;;;;;;;;;;;;;;18.40;56.65;101067.41;5016716;28;1686;-31
2022/03/08 07:03:10;;;;;;;;;;;;;;;18.46;56.50;101065.09;5015514;28;1983;-32
2022/03/08 07:05:38;;;;;;;;;;;;;;;18.48;56.16;101073.00;5016180;28;1811;-31
2022/03/08 07:08:04;;;;;;;;;;;;;;;18.42;56.25;101071.69;5012068;28;1749;-32
2022/03/08 07:10:31;;;;;;;;;;;;;;;18.52;56.11;101070.91;5012233;28;1869;-32
2022/03/08 07:12:58;;;;;;;;;;;;;;;18.37;56.25;101059.63;5005096;28;1567;-31
2022/03/08 07:15:27;;;;;;;;;;;;;;;18.38;56.64;101072.03;5015883;28;2042;-32
2022/03/08 07:18:00;;;;;;;;;;;;;;;18.36;56.35;101069.47;5002262;28;1758;-31
2022/03/08 07:20:29;;;;;;;;;;;;;;;18.35;56.50;101061.59;5016277;28;1670;-32
2022/03/08 07:22:58;;;;;;;;;;;;;;;18.37;56.70;101071.19;5010934;28;1972;-32
2022/03/08 07:25:26;;;;;;;;;;;;;;;18.37;56.14;101081.06;5015584;28;1716;-32
2022/03/08 07:27:55;;;;;;;;;;;;;;;18.35;56.48;101072.31;5006578;28;1757;-32
2022/03/08 07:30:29;;;;;;;;;;;;;;;18.40;56.45;101072.75;5009445;28;1757;-33
2022/03/08 07:33:04;;;;;;;;;;;;;;;18.36;56.49;101065.94;5000730;28;1570;-33
2022/03/08 07:35:34;;;;;;;;;;;;;;;18.32;56.52;101077.88;5003625;28;1633;-32
2022/03/08 07:38:04;;;;;;;;;;;;;;;18.27;56.77;101065.72;5015645;28;1502;-32
2022/03/08 07:40:30;;;;;;;;;;;;;;;18.29;56.67;101084.34;5013475;28;1854;-32
2022/03/08 07:42:57;;;;;;;;;;;;;;;18.33;56.92;101076.94;5012556;28;1906;-32
2022/03/08 07:45:29;;;;;;;;;;;;;;;18.37;56.26;101060.47;5015533;28;1779;-32
2022/03/08 07:47:59;;;;;;;;;;;;;;;18.45;56.58;101074.09;5012641;28;1629;-32
2022/03/08 07:50:27;;;;;;;;;;;;;;;18.56;55.31;101080.41;5015157;28;1643;-34
2022/03/08 07:52:54;;;;;;;;;;;;;;;18.53;55.73;101069.97;5012064;28;1710;-33
2022/03/08 07:55:21;;;;;;;;;;;;;;;18.43;56.19;101064.50;5011542;28;1478;-33
2022/03/08 07:57:55;;;;;;;;;;;;;;;18.60;55.42;101071.13;5013648;28;1894;-33
2022/03/08 08:00:27;;;;;;;;;;;;;;;18.58;55.69;101070.41;5006557;28;1617;-33
2022/03/08 08:02:53;;;;;;;;;;;;;;;18.57;55.70;101066.91;5013872;28;1977;-33
2022/03/08 08:05:24;;;;;;;;;;;;;;;18.59;55.66;101074.81;5014971;28;1491;-35
2022/03/08 08:07:53;;;;;;;;;;;;;;;18.65;55.32;101074.31;5013552;28;1831;-33
2022/03/08 08:10:21;;;;;;;;;;;;;;;18.60;55.35;101058.63;5011018;28;1890;-33
2022/03/08 08:12:50;;;;;;;;;;;;;;;18.59;55.97;101075.66;5015469;28;1601;-34
2022/03/08 08:15:16;;;;;;;;;;;;;;;18.64;55.13;101067.22;5013194;28;1698;-32
2022/03/08 08:17:43;;;;;;;;;;;;;;;18.62;55.50;101063.81;5014586;28;1936;-33
2022/03/08 08:20:12;;;;;;;;;;;;;;;18.68;55.73;101068.69;5014783;28;1623;-33
2022/03/08 08:22:42;;;;;;;;;;;;;;;18.62;55.34;101070.06;5009617;28;1981;-33
2022/03/08 08:25:10;;;;;;;;;;;;;;;18.55;55.64;101073.34;5010446;28;1860;-33
2022/03/08 08:27:38;;;;;;;;;;;;;;;18.61;55.71;101072.84;5015131;28;1845;-33
2022/03/08 08:30:06;;;;;;;;;;;;;;;18.53;56.08;101070.81;5006257;28;1845;-33
2022/03/08 08:32:36;;;;;;;;;;;;;;;18.52;55.60;101071.75;5014156;28;1978;-33
2022/03/08 08:35:09;;;;;;;;;;;;;;;18.56;55.69;101075.91;5010356;28;1889;-33
2022/03/08 08:37:36;;;;;;;;;;;;;;;18.59;55.54;101075.66;5013451;28;2543;-33
2022/03/08 08:40:04;;;;;;;;;;;;;;;18.54;55.87;101067.13;5010693;28;1571;-34
2022/03/08 08:42:33;;;;;;;;;;;;;;;18.48;55.84;101071.19;5014770;28;1926;-33
2022/03/08 08:45:01;;;;;;;;;;;;;;;18.43;56.54;101053.78;4999652;28;1952;-33
2022/03/08 08:47:28;;;;;;;;;;;;;;;18.35;56.19;101069.63;5013523;28;1591;-33
2022/03/08 08:49:55;;;;;;;;;;;;;;;18.32;56.30;101056.47;5001383;28;1619;-33
2022/03/08 08:52:22;;;;;;;;;;;;;;;18.34;55.87;101059.88;5014856;28;991;-33
2022/03/08 08:54:53;;;;;;;;;;;;;;;18.31;56.12;101060.13;5007394;28;1151;-33
2022/03/08 08:57:25;;;;;;;;;;;;;;;18.34;55.84;101066.06;5014085;28;1828;-33
2022/03/08 08:59:55;;;;;;;;;;;;;;;18.34;56.00;101059.88;5014322;28;1844;-32
2022/03/08 09:02:21;;;;;;;;;;;;;;;18.32;55.94;101078.72;5013898;28;1588;-33
2022/03/08 09:04:48;;;;;;;;;;;;;;;18.34;55.91;101065.22;5013947;28;1910;-33
2022/03/08 09:07:14;;;;;;;;;;;;;;;18.28;55.86;101046.03;5014093;28;1135;-33
2022/03/08 09:09:43;;;;;;;;;;;;;;;18.35;55.95;101056.25;5014539;28;1914;-32
2022/03/08 09:12:13;;;;;;;;;;;;;;;18.28;55.91;101056.72;5014378;28;1769;-32
2022/03/08 09:14:45;;;;;;;;;;;;;;;18.27;55.82;101059.53;5014196;28;2028;-33
2022/03/08 09:17:13;;;;;;;;;;;;;;;18.24;55.88;101066.00;5014653;28;1666;-35
2022/03/08 09:19:40;;;;;;;;;;;;;;;18.25;55.88;101056.97;5013618;28;1122;-35
2022/03/08 09:22:07;;;;;;;;;;;;;;;18.26;55.88;101064.03;5013567;28;1733;-33
2022/03/08 09:24:39;;;;;;;;;;;;;;;18.27;55.77;101048.81;5013647;28;1906;-33
2022/03/08 09:27:08;;;;;;;;;;;;;;;18.33;55.67;101047.47;5013894;28;1682;-33
2022/03/08 09:29:37;;;;;;;;;;;;;;;18.34;55.39;101059.88;5007041;28;1614;-33
2022/03/08 09:32:08;;;;;;;;;;;;;;;18.33;55.78;101052.84;5013636;28;1953;-33
2022/03/08 09:34:39;;;;;;;;;;;;;;;18.33;55.71;101058.19;5014047;28;1622;-34
2022/03/08 09:37:06;;;;;;;;;;;;;;;18.28;55.66;101056.72;4995997;28;1254;-35
2022/03/08 09:39:34;;;;;;;;;;;;;;;18.32;55.76;101061.81;5013455;28;1896;-35
2022/03/08 09:42:04;;;;;;;;;;;;;;;18.29;55.63;101058.41;5013772;28;2003;-33
2022/03/08 09:44:33;;;;;;;;;;;;;;;18.31;55.87;101060.13;4994488;28;2042;-33
2022/03/08 09:47:01;;;;;;;;;;;;;;;18.24;55.68;101049.06;5010927;28;1130;-33
2022/03/08 09:49:32;;;;;;;;;;;;;;;18.28;55.81;101070.13;5013983;28;1884;-33
2022/03/08 09:51:59;;;;;;;;;;;;;;;18.27;55.71;101059.53;5013908;28;1990;-33
2022/03/08 09:54:29;;;;;;;;;;;;;;;18.29;55.98;101057.56;5013297;28;1624;-33
2022/03/08 09:56:56;;;;;;;;;;;;;;;18.28;55.57;101062.09;5013542;28;1658;-33
2022/03/08 09:59:29;;;;;;;;;;;;;;;18.27;55.53;101071.06;5013375;28;1781;-33
2022/03/08 10:02:01;;;;;;;;;;;;;;;18.24;55.71;101059.75;5013104;28;1433;-34
2022/03/08 10:04:33;;;;;;;;;;;;;;;18.26;55.72;101069.41;5009442;28;1906;-33
2022/03/08 10:07:00;;;;;;;;;;;;;;;18.24;55.65;101067.78;5013414;28;1746;-33
2022/03/08 10:09:27;;;;;;;;;;;;;;;18.24;55.74;101066.00;5013504;28;1951;-33
2022/03/08 10:11:57;;;;;;;;;;;;;;;18.22;55.76;101067.94;5013254;28;1524;-33
2022/03/08 10:14:38;;;;;;;;;;;;;;;18.20;55.50;101067.19;5013730;28;1384;-35
2022/03/08 10:17:04;;;;;;;;;;;;;;;18.24;55.58;101073.16;5006623;28;1360;-37
2022/03/08 10:19:43;;;;;;;;;;;;;;;18.23;55.58;101074.97;5013367;28;1159;-35
2022/03/08 10:22:23;;;;;;;;;;;;;;;18.27;55.54;101073.75;5006631;28;1084;-35
2022/03/08 10:24:53;;;;;;;;;;;;;;;18.25;55.54;101062.31;5013130;28;1910;-33
2022/03/08 10:27:23;;;;;;;;;;;;;;;18.27;55.41;101067.56;5013101;28;1360;-35
2022/03/08 10:30:12;;;;;;;;;;;;;;;18.26;55.42;101074.75;5013506;28;1845;-32
2022/03/08 10:32:40;;;;;;;;;;;;;;;18.28;55.34;101077.28;5015215;28;1966;-33
2022/03/08 10:35:14;;;;;;;;;;;;;;;18.29;55.60;101073.63;5017023;28;1763;-33
2022/03/08 10:37:43;;;;;;;;;;;;;;;18.25;55.51;101073.03;5005153;28;1442;-33
2022/03/08 10:40:13;;;;;;;;;;;;;;;18.27;55.51;101064.88;5016802;28;1627;-35
2022/03/08 10:42:46;;;;;;;;;;;;;;;18.22;55.47;101078.66;5002585;28;1044;-33
2022/03/08 10:45:15;;;;;;;;;;;;;;;18.29;55.54;101082.50;5016872;28;2025;-33
2022/03/08 10:47:50;;;;;;;;;;;;;;;18.31;55.31;101076.19;5016986;28;1853;-33
2022/03/08 10:50:23;;;;;;;;;;;;;;;18.32;55.38;101073.38;5016622;28;1685;-33
2022/03/08 10:52:51;;;;;;;;;;;;;;;18.28;55.56;101051.38;5014776;28;1682;-32
2022/03/08 10:55:20;;;;;;;;;;;;;;;18.34;55.17;101076.78;5015038;28;1626;-35
2022/03/08 10:57:49;;;;;;;;;;;;;;;18.33;55.22;101074.25;5011685;28;1697;-33
2022/03/08 11:00:17;;;;;;;;;;;;;;;18.31;55.23;101054.78;5005534;28;1117;-33
2022/03/08 11:02:50;;;;;;;;;;;;;;;18.32;55.16;101072.53;5003013;28;1717;-33
2022/03/08 11:05:23;;;;;;;;;;;;;;;18.34;55.48;101073.25;5016177;28;1977;-34
2022/03/08 11:07:51;;;;;;;;;;;;;;;18.28;55.32;101062.09;5006176;28;1630;-33
2022/03/08 11:10:29;;;;;;;;;;;;;;;18.25;55.22;101051.63;5007829;28;1123;-33
2022/03/08 11:12:56;;;;;;;;;;;;;;;18.22;55.43;101059.91;5008426;28;1076;-33
2022/03/08 11:15:24;;;;;;;;;;;;;;;18.24;55.44;101062.44;5004675;28;1635;-33
2022/03/08 11:18:01;;;;;;;;;;;;;;;18.20;55.55;101052.94;5016332;28;1797;-33
2022/03/08 11:20:39;;;;;;;;;;;;;;;18.18;55.46;101055.75;5014459;28;1801;-33
2022/03/08 11:23:06;;;;;;;;;;;;;;;18.16;55.54;101062.19;5018608;28;1577;-35
2022/03/08 11:25:44;;;;;;;;;;;;;;;18.21;55.76;101068.91;5018661;28;1972;-35
2022/03/08 11:28:13;;;;;;;;;;;;;;;18.13;55.23;101052.59;5010948;28;1833;-35
2022/03/08 11:30:56;;;;;;;;;;;;;;;18.16;54.92;101047.00;5011415;28;1606;-35
2022/03/08 11:33:40;;;;;;;;;;;;;;;18.21;54.91;101066.22;5008255;28;1833;-35
2022/03/08 11:36:17;;;;;;;;;;;;;;;18.13;54.61;101054.44;5011403;28;1705;-33
2022/03/08 11:38:46;;;;;;;;;;;;;;;18.08;55.28;101052.97;5009738;28;1621;-33
2022/03/08 11:41:25;;;;;;;;;;;;;;;18.09;55.17;101056.50;5006193;28;1751;-33
2022/03/08 11:43:59;;;;;;;;;;;;;;;18.04;55.37;101058.69;5008271;28;1902;-34
2022/03/08 11:46:28;;;;;;;;;;;;;;;18.10;55.13;101058.19;5013105;28;1695;-33
2022/03/08 11:48:56;;;;;;;;;;;;;;;18.07;55.17;101063.81;5012022;28;1586;-33
2022/03/08 11:51:30;;;;;;;;;;;;;;;18.05;54.98;101068.44;5015191;28;1325;-33
2022/03/08 11:54:12;;;;;;;;;;;;;;;18.09;54.27;101076.09;5014859;28;1584;-33
2022/03/08 11:56:45;;;;;;;;;;;;;;;18.05;54.65;101066.59;5008742;28;1613;-33
2022/03/08 11:59:11;;;;;;;;;;;;;;;18.05;54.30;101058.56;5015374;28;1465;-33
2022/03/08 12:01:38;;;;;;;;;;;;;;;18.03;53.96;101079.25;5015251;28;1519;-35
2022/03/08 12:04:06;;;;;;;;;;;;;;;18.00;54.24;101062.56;5010082;28;1906;-35
2022/03/08 12:06:39;;;;;;;;;;;;;;;18.00;54.45;101071.44;5014782;28;1837;-36
2022/03/08 12:09:13;;;;;;;;;;;;;;;18.04;53.81;101064.88;5009167;28;1712;-35
2022/03/08 12:11:44;;;;;;;;;;;;;;;18.07;53.32;101075.34;5015046;28;1320;-35
2022/03/08 12:14:18;;;;;;;;;;;;;;;18.04;53.52;101066.72;5015515;28;1801;-35
2022/03/08 12:16:52;;;;;;;;;;;;;;;18.21;53.17;101065.38;5014469;28;1564;-35
2022/03/08 12:19:34;;;;;;;;;;;;;;;18.10;53.81;101060.88;5013441;28;1774;-35
2022/03/08 12:22:04;;;;;;;;;;;;;;;17.97;54.42;101065.50;5014715;28;1749;-35
2022/03/08 12:24:47;;;;;;;;;;;;;;;17.98;54.19;101069.88;5014888;28;1983;-35
2022/03/08 12:27:15;;;;;;;;;;;;;;;17.99;54.33;101066.25;5014811;28;1619;-35
2022/03/08 12:30:02;;;;;;;;;;;;;;;17.93;54.39;101056.03;5007453;28;1935;-35
2022/03/08 12:32:41;;;;;;;;;;;;;;;17.95;54.31;101079.00;4999570;28;1796;-35
2022/03/08 12:35:17;;;;;;;;;;;;;;;18.02;54.31;101071.34;5010411;28;1830;-34
2022/03/08 12:37:51;;;;;;;;;;;;;;;18.01;54.68;101073.16;5007291;28;1964;-33
2022/03/08 12:40:31;;;;;;;;;;;;;;;18.03;54.57;101067.69;5008243;28;1306;-34
2022/03/08 12:43:11;;;;;;;;;;;;;;;18.07;54.70;101074.50;5007036;28;1357;-33
2022/03/08 12:45:39;;;;;;;;;;;;;;;17.99;54.57;101076.94;5013863;28;1977;-33
2022/03/08 12:48:07;;;;;;;;;;;;;;;17.96;54.93;101071.81;5014695;28;1765;-33
2022/03/08 12:50:35;;;;;;;;;;;;;;;17.93;55.00;101066.72;5009183;28;1757;-34
2022/03/08 12:53:05;;;;;;;;;;;;;;;17.91;55.21;101064.16;5013218;28;1689;-33
2022/03/08 12:55:41;;;;;;;;;;;;;;;17.92;55.09;101073.03;5012484;28;1459;-33
2022/03/08 12:58:29;;;;;;;;;;;;;;;17.91;55.70;101090.06;5010641;28;1670;-33
2022/03/08 13:01:14;;;;;;;;;;;;;;;17.92;55.33;101084.59;4994634;28;1178;-33
2022/03/08 13:03:43;;;;;;;;;;;;;;;17.94;55.18;101089.81;5004040;28;1690;-35
2022/03/08 13:06:11;;;;;;;;;;;;;;;18.07;54.27;101079.84;5014050;28;1910;-34
2022/03/08 13:08:39;;;;;;;;;;;;;;;18.06;54.67;101073.66;5013780;28;1742;-34
2022/03/08 13:11:13;;;;;;;;;;;;;;;18.06;55.31;101048.69;5007718;28;1781;-35